sensor_id;sensor_type;location;lat;lon;timestamp;pressure;altitude;pressure_sealevel;temperature;humidity
59513;BME280;45330;51.634;5.562;2024-03-29T00:01:50;99059.69;;;7.00;100.00
59513;BME280;45330;51.634;5.562;2024-03-29T00:04:15;99046.16;;;6.87;100.00
59513;BME280;45330;51.634;5.562;2024-03-29T00:06:40;99010.41;;;6.65;100.00
59513;BME280;45330;51.634;5.562;2024-03-29T00:09:06;99047.84;;;6.88;100.00
59513;BME280;45330;51.634;5.562;2024-03-29T00:11:31;99045.31;;;6.86;100.00
59513;BME280;45330;51.634;5.562;2024-03-29T00:13:56;99027.66;;;6.63;100.00
59513;BME280;45330;51.634;5.562;2024-03-29T00:16:22;99045.47;;;6.77;100.00
59513;BME280;45330;51.634;5.562;2024-03-29T00:18:51;99053.88;;;6.89;100.00
59513;BME280;45330;51.634;5.562;2024-03-29T00:21:16;99036.81;;;6.80;100.00
59513;BME280;45330;51.634;5.562;2024-03-29T00:23:42;99061.50;;;6.96;100.00
59513;BME280;45330;51.634;5.562;2024-03-29T00:26:09;99035.09;;;6.79;100.00
59513;BME280;45330;51.634;5.562;2024-03-29T00:28:34;99078.78;;;6.93;100.00
59513;BME280;45330;51.634;5.562;2024-03-29T00:30:59;99072.00;;;6.87;100.00
59513;BME280;45330;51.634;5.562;2024-03-29T00:33:25;99086.72;;;6.83;100.00
59513;BME280;45330;51.634;5.562;2024-03-29T00:35:50;99085.84;;;6.84;100.00
59513;BME280;45330;51.634;5.562;2024-03-29T00:38:15;99081.69;;;6.76;100.00
59513;BME280;45330;51.634;5.562;2024-03-29T00:40:41;99052.72;;;6.60;100.00
59513;BME280;45330;51.634;5.562;2024-03-29T00:43:06;99075.72;;;6.74;100.00
59513;BME280;45330;51.634;5.562;2024-03-29T00:45:32;99075.03;;;6.62;100.00
59513;BME280;45330;51.634;5.562;2024-03-29T00:47:58;99053.84;;;6.45;100.00
59513;BME280;45330;51.634;5.562;2024-03-29T00:50:23;99064.19;;;6.45;100.00
59513;BME280;45330;51.634;5.562;2024-03-29T00:52:48;99066.72;;;6.46;100.00
59513;BME280;45330;51.634;5.562;2024-03-29T00:55:14;99063.41;;;6.40;100.00
59513;BME280;45330;51.634;5.562;2024-03-29T00:57:40;99085.66;;;6.48;100.00
59513;BME280;45330;51.634;5.562;2024-03-29T01:00:05;99093.53;;;6.41;100.00
59513;BME280;45330;51.634;5.562;2024-03-29T01:02:31;99074.06;;;6.20;100.00
59513;BME280;45330;51.634;5.562;2024-03-29T01:04:56;99036.47;;;6.03;100.00
59513;BME280;45330;51.634;5.562;2024-03-29T01:07:23;99096.28;;;6.30;100.00
59513;BME280;45330;51.634;5.562;2024-03-29T01:09:48;99068.97;;;6.16;100.00
59513;BME280;45330;51.634;5.562;2024-03-29T01:12:14;99091.16;;;6.28;100.00
59513;BME280;45330;51.634;5.562;2024-03-29T01:14:39;99066.41;;;6.15;100.00
59513;BME280;45330;51.634;5.562;2024-03-29T01:17:04;99097.22;;;6.27;100.00
59513;BME280;45330;51.634;5.562;2024-03-29T01:19:32;99092.78;;;6.34;100.00
59513;BME280;45330;51.634;5.562;2024-03-29T01:21:57;99092.75;;;6.35;100.00
59513;BME280;45330;51.634;5.562;2024-03-29T01:24:23;99056.97;;;6.14;100.00
59513;BME280;45330;51.634;5.562;2024-03-29T01:26:48;99085.09;;;6.29;100.00
59513;BME280;45330;51.634;5.562;2024-03-29T01:29:13;99072.22;;;6.28;100.00
59513;BME280;45330;51.634;5.562;2024-03-29T01:31:39;99062.75;;;6.27;100.00
59513;BME280;45330;51.634;5.562;2024-03-29T01:34:04;99063.56;;;6.30;100.00
59513;BME280;45330;51.634;5.562;2024-03-29T01:36:29;99041.41;;;6.17;100.00
59513;BME280;45330;51.634;5.562;2024-03-29T01:38:55;99054.84;;;6.38;100.00
59513;BME280;45330;51.634;5.562;2024-03-29T01:41:25;99045.31;;;6.40;100.00
59513;BME280;45330;51.634;5.562;2024-03-29T01:43:52;99051.34;;;6.40;100.00
59513;BME280;45330;51.634;5.562;2024-03-29T01:46:23;99012.88;;;6.25;100.00
59513;BME280;45330;51.634;5.562;2024-03-29T01:48:53;99016.16;;;6.34;100.00
59513;BME280;45330;51.634;5.562;2024-03-29T01:51:20;99004.09;;;6.33;100.00
59513;BME280;45330;51.634;5.562;2024-03-29T01:53:47;99012.59;;;6.40;100.00
59513;BME280;45330;51.634;5.562;2024-03-29T01:56:13;99019.44;;;6.43;100.00
59513;BME280;45330;51.634;5.562;2024-03-29T01:58:39;98988.72;;;6.27;100.00
59513;BME280;45330;51.634;5.562;2024-03-29T02:01:07;99021.97;;;6.46;100.00
59513;BME280;45330;51.634;5.562;2024-03-29T02:03:32;98982.66;;;6.28;100.00
59513;BME280;45330;51.634;5.562;2024-03-29T02:05:58;98999.72;;;6.39;100.00
59513;BME280;45330;51.634;5.562;2024-03-29T02:08:24;99019.34;;;6.47;100.00
59513;BME280;45330;51.634;5.562;2024-03-29T02:10:50;99018.31;;;6.56;100.00
59513;BME280;45330;51.634;5.562;2024-03-29T02:13:16;99022.56;;;6.59;100.00
59513;BME280;45330;51.634;5.562;2024-03-29T02:15:42;99010.69;;;6.50;100.00
59513;BME280;45330;51.634;5.562;2024-03-29T02:18:08;99038.78;;;6.67;100.00
59513;BME280;45330;51.634;5.562;2024-03-29T02:20:34;99048.16;;;6.73;100.00
59513;BME280;45330;51.634;5.562;2024-03-29T02:23:11;99047.25;;;6.75;100.00
59513;BME280;45330;51.634;5.562;2024-03-29T02:25:37;99036.13;;;6.70;100.00
59513;BME280;45330;51.634;5.562;2024-03-29T02:28:03;99047.03;;;6.86;100.00
59513;BME280;45330;51.634;5.562;2024-03-29T02:30:29;99056.41;;;6.90;100.00
59513;BME280;45330;51.634;5.562;2024-03-29T02:32:58;99069.28;;;6.95;100.00
59513;BME280;45330;51.634;5.562;2024-03-29T02:35:24;99039.19;;;6.89;100.00
59513;BME280;45330;51.634;5.562;2024-03-29T02:37:50;99044.97;;;7.03;100.00
59513;BME280;45330;51.634;5.562;2024-03-29T02:40:16;99046.63;;;7.04;100.00
59513;BME280;45330;51.634;5.562;2024-03-29T02:42:41;99079.25;;;7.13;100.00
59513;BME280;45330;51.634;5.562;2024-03-29T02:45:07;99070.56;;;7.16;100.00
59513;BME280;45330;51.634;5.562;2024-03-29T02:47:33;99065.25;;;7.22;100.00
59513;BME280;45330;51.634;5.562;2024-03-29T02:49:58;99049.06;;;7.14;100.00
59513;BME280;45330;51.634;5.562;2024-03-29T02:52:23;99059.22;;;7.23;100.00
59513;BME280;45330;51.634;5.562;2024-03-29T02:54:49;99071.00;;;7.36;100.00
59513;BME280;45330;51.634;5.562;2024-03-29T02:57:14;99046.63;;;7.47;100.00
59513;BME280;45330;51.634;5.562;2024-03-29T02:59:40;99044.06;;;7.45;100.00
59513;BME280;45330;51.634;5.562;2024-03-29T03:02:06;99074.69;;;7.65;100.00
59513;BME280;45330;51.634;5.562;2024-03-29T03:04:31;99080.53;;;7.72;100.00
59513;BME280;45330;51.634;5.562;2024-03-29T03:06:56;99077.91;;;7.75;100.00
59513;BME280;45330;51.634;5.562;2024-03-29T03:09:41;99069.19;;;7.79;100.00
59513;BME280;45330;51.634;5.562;2024-03-29T03:12:25;99076.88;;;7.82;100.00
59513;BME280;45330;51.634;5.562;2024-03-29T03:14:51;99078.47;;;7.88;100.00
59513;BME280;45330;51.634;5.562;2024-03-29T03:17:16;99095.59;;;7.94;100.00
59513;BME280;45330;51.634;5.562;2024-03-29T03:19:41;99071.88;;;7.75;100.00
59513;BME280;45330;51.634;5.562;2024-03-29T03:22:07;99096.72;;;7.83;100.00
59513;BME280;45330;51.634;5.562;2024-03-29T03:24:32;99089.91;;;7.79;100.00
59513;BME280;45330;51.634;5.562;2024-03-29T03:26:57;99080.09;;;7.54;100.00
59513;BME280;45330;51.634;5.562;2024-03-29T03:29:23;99110.19;;;7.59;100.00
59513;BME280;45330;51.634;5.562;2024-03-29T03:31:48;99094.13;;;7.44;100.00
59513;BME280;45330;51.634;5.562;2024-03-29T03:34:13;99088.28;;;7.34;100.00
59513;BME280;45330;51.634;5.562;2024-03-29T03:36:39;99091.91;;;7.27;100.00
59513;BME280;45330;51.634;5.562;2024-03-29T03:39:04;99093.06;;;7.12;100.00
59513;BME280;45330;51.634;5.562;2024-03-29T03:41:29;99080.34;;;7.01;100.00
59513;BME280;45330;51.634;5.562;2024-03-29T03:43:55;99079.78;;;6.85;100.00
59513;BME280;45330;51.634;5.562;2024-03-29T03:46:20;99102.16;;;6.88;100.00
59513;BME280;45330;51.634;5.562;2024-03-29T03:48:45;99087.66;;;6.81;100.00
59513;BME280;45330;51.634;5.562;2024-03-29T03:51:10;99088.53;;;6.80;100.00
59513;BME280;45330;51.634;5.562;2024-03-29T03:53:36;99085.09;;;6.78;100.00
59513;BME280;45330;51.634;5.562;2024-03-29T03:56:01;99042.56;;;6.49;100.00
59513;BME280;45330;51.634;5.562;2024-03-29T03:58:26;99066.50;;;6.59;100.00
59513;BME280;45330;51.634;5.562;2024-03-29T04:00:52;99100.69;;;6.73;100.00
59513;BME280;45330;51.634;5.562;2024-03-29T04:03:17;99100.66;;;6.75;100.00
59513;BME280;45330;51.634;5.562;2024-03-29T04:05:42;99104.97;;;6.76;100.00
59513;BME280;45330;51.634;5.562;2024-03-29T04:08:08;99107.44;;;6.80;100.00
59513;BME280;45330;51.634;5.562;2024-03-29T04:10:37;99104.03;;;6.80;100.00
59513;BME280;45330;51.634;5.562;2024-03-29T04:13:03;99103.03;;;6.87;100.00
59513;BME280;45330;51.634;5.562;2024-03-29T04:15:29;99121.84;;;6.95;100.00
59513;BME280;45330;51.634;5.562;2024-03-29T04:17:56;99114.88;;;6.97;100.00
59513;BME280;45330;51.634;5.562;2024-03-29T04:20:21;99114.00;;;6.98;100.00
59513;BME280;45330;51.634;5.562;2024-03-29T04:22:46;99090.22;;;6.81;100.00
59513;BME280;45330;51.634;5.562;2024-03-29T04:25:12;99120.16;;;6.93;100.00
59513;BME280;45330;51.634;5.562;2024-03-29T04:27:38;99126.13;;;6.96;100.00
59513;BME280;45330;51.634;5.562;2024-03-29T04:30:03;99109.09;;;6.84;100.00
59513;BME280;45330;51.634;5.562;2024-03-29T04:32:29;99086.22;;;6.64;100.00
59513;BME280;45330;51.634;5.562;2024-03-29T04:34:54;99108.38;;;6.76;100.00
59513;BME280;45330;51.634;5.562;2024-03-29T04:37:19;99094.94;;;6.59;100.00
59513;BME280;45330;51.634;5.562;2024-03-29T04:39:45;99111.22;;;6.62;100.00
59513;BME280;45330;51.634;5.562;2024-03-29T04:42:11;99076.38;;;6.37;100.00
59513;BME280;45330;51.634;5.562;2024-03-29T04:44:37;99127.78;;;6.52;100.00
59513;BME280;45330;51.634;5.562;2024-03-29T04:47:03;99117.59;;;6.44;100.00
59513;BME280;45330;51.634;5.562;2024-03-29T04:49:28;99094.63;;;6.26;100.00
59513;BME280;45330;51.634;5.562;2024-03-29T04:52:02;99101.50;;;6.27;100.00
59513;BME280;45330;51.634;5.562;2024-03-29T04:54:27;99091.22;;;6.24;100.00
59513;BME280;45330;51.634;5.562;2024-03-29T04:56:53;99109.13;;;6.36;100.00
59513;BME280;45330;51.634;5.562;2024-03-29T04:59:19;99110.16;;;6.24;100.00
59513;BME280;45330;51.634;5.562;2024-03-29T05:01:46;99115.22;;;6.32;100.00
59513;BME280;45330;51.634;5.562;2024-03-29T05:04:18;99118.66;;;6.31;100.00
59513;BME280;45330;51.634;5.562;2024-03-29T05:06:50;99135.91;;;6.30;100.00
59513;BME280;45330;51.634;5.562;2024-03-29T05:09:16;99125.63;;;6.26;100.00
59513;BME280;45330;51.634;5.562;2024-03-29T05:11:41;99100.09;;;6.07;100.00
59513;BME280;45330;51.634;5.562;2024-03-29T05:14:07;99129.94;;;6.25;100.00
59513;BME280;45330;51.634;5.562;2024-03-29T05:16:32;99130.81;;;6.24;100.00
59513;BME280;45330;51.634;5.562;2024-03-29T05:18:57;99098.41;;;6.05;100.00
59513;BME280;45330;51.634;5.562;2024-03-29T05:21:23;99106.78;;;6.21;100.00
59513;BME280;45330;51.634;5.562;2024-03-29T05:23:48;99124.03;;;6.17;100.00
59513;BME280;45330;51.634;5.562;2024-03-29T05:26:13;99128.41;;;6.15;100.00
59513;BME280;45330;51.634;5.562;2024-03-29T05:28:39;99136.19;;;6.12;100.00
59513;BME280;45330;51.634;5.562;2024-03-29T05:31:12;99107.13;;;5.96;100.00
59513;BME280;45330;51.634;5.562;2024-03-29T05:33:42;99119.84;;;6.10;100.00
59513;BME280;45330;51.634;5.562;2024-03-29T05:36:08;99098.59;;;5.92;100.00
59513;BME280;45330;51.634;5.562;2024-03-29T05:38:36;99106.16;;;6.05;100.00
59513;BME280;45330;51.634;5.562;2024-03-29T05:41:01;99077.13;;;5.89;100.00
59513;BME280;45330;51.634;5.562;2024-03-29T05:43:26;99119.06;;;6.06;100.00
59513;BME280;45330;51.634;5.562;2024-03-29T05:45:52;99119.94;;;6.05;100.00
59513;BME280;45330;51.634;5.562;2024-03-29T05:48:18;99090.91;;;5.88;100.00
59513;BME280;45330;51.634;5.562;2024-03-29T05:50:46;99105.25;;;6.07;100.00
59513;BME280;45330;51.634;5.562;2024-03-29T05:53:12;99114.69;;;6.10;100.00
59513;BME280;45330;51.634;5.562;2024-03-29T05:55:37;99099.34;;;5.99;100.00
59513;BME280;45330;51.634;5.562;2024-03-29T05:58:02;99094.31;;;5.91;100.00
59513;BME280;45330;51.634;5.562;2024-03-29T06:00:28;99125.88;;;6.09;100.00
59513;BME280;45330;51.634;5.562;2024-03-29T06:02:54;99112.28;;;5.97;100.00
59513;BME280;45330;51.634;5.562;2024-03-29T06:05:20;99130.19;;;6.10;100.00
59513;BME280;45330;51.634;5.562;2024-03-29T06:07:45;99132.78;;;6.10;100.00
59513;BME280;45330;51.634;5.562;2024-03-29T06:10:10;99136.19;;;6.10;100.00
59513;BME280;45330;51.634;5.562;2024-03-29T06:12:36;99141.34;;;6.10;100.00
59513;BME280;45330;51.634;5.562;2024-03-29T06:15:04;99149.19;;;6.06;100.00
59513;BME280;45330;51.634;5.562;2024-03-29T06:17:48;99153.44;;;6.10;100.00
59513;BME280;45330;51.634;5.562;2024-03-29T06:20:14;99147.47;;;6.05;100.00
59513;BME280;45330;51.634;5.562;2024-03-29T06:22:39;99156.09;;;6.05;100.00
59513;BME280;45330;51.634;5.562;2024-03-29T06:25:05;99140.69;;;5.97;100.00
59513;BME280;45330;51.634;5.562;2024-03-29T06:27:34;99156.00;;;6.11;100.00
59513;BME280;45330;51.634;5.562;2024-03-29T06:30:01;99135.50;;;6.00;100.00
59513;BME280;45330;51.634;5.562;2024-03-29T06:32:27;99156.88;;;6.09;100.00
59513;BME280;45330;51.634;5.562;2024-03-29T06:34:52;99153.47;;;6.08;100.00
59513;BME280;45330;51.634;5.562;2024-03-29T06:37:18;99130.38;;;5.97;100.00
59513;BME280;45330;51.634;5.562;2024-03-29T06:39:47;99154.28;;;6.12;100.00
59513;BME280;45330;51.634;5.562;2024-03-29T06:42:12;99156.75;;;6.18;100.00
59513;BME280;45330;51.634;5.562;2024-03-29T06:44:37;99143.81;;;6.20;100.00
59513;BME280;45330;51.634;5.562;2024-03-29T06:47:03;99120.72;;;6.09;100.00
59513;BME280;45330;51.634;5.562;2024-03-29T06:49:29;99125.81;;;6.15;100.00
59513;BME280;45330;51.634;5.562;2024-03-29T06:51:54;99137.59;;;6.31;100.00
59513;BME280;45330;51.634;5.562;2024-03-29T06:54:21;99118.72;;;6.28;100.00
59513;BME280;45330;51.634;5.562;2024-03-29T06:56:51;99098.91;;;6.28;100.00
59513;BME280;45330;51.634;5.562;2024-03-29T06:59:16;99122.66;;;6.49;100.00
59513;BME280;45330;51.634;5.562;2024-03-29T07:01:42;99124.38;;;6.50;100.00
59513;BME280;45330;51.634;5.562;2024-03-29T07:04:07;99125.38;;;6.41;100.00
59513;BME280;45330;51.634;5.562;2024-03-29T07:06:33;99137.19;;;6.56;100.00
59513;BME280;45330;51.634;5.562;2024-03-29T07:08:58;99126.91;;;6.53;100.00
59513;BME280;45330;51.634;5.562;2024-03-29T07:11:23;99137.06;;;6.62;100.00
59513;BME280;45330;51.634;5.562;2024-03-29T07:13:49;99127.50;;;6.67;100.00
59513;BME280;45330;51.634;5.562;2024-03-29T07:16:14;99132.59;;;6.74;100.00
59513;BME280;45330;51.634;5.562;2024-03-29T07:18:39;99153.09;;;6.83;100.00
59513;BME280;45330;51.634;5.562;2024-03-29T07:21:05;99141.81;;;6.87;100.00
59513;BME280;45330;51.634;5.562;2024-03-29T07:23:30;99149.38;;;6.98;100.00
59513;BME280;45330;51.634;5.562;2024-03-29T07:26:04;99154.16;;;7.18;100.00
59513;BME280;45330;51.634;5.562;2024-03-29T07:28:29;99134.25;;;7.23;100.00
59513;BME280;45330;51.634;5.562;2024-03-29T07:30:56;99152.91;;;7.37;100.00
59513;BME280;45330;51.634;5.562;2024-03-29T07:33:25;99168.13;;;7.53;100.00
59513;BME280;45330;51.634;5.562;2024-03-29T07:35:54;99136.41;;;7.43;100.00
59513;BME280;45330;51.634;5.562;2024-03-29T07:38:23;99161.97;;;7.59;100.00
59513;BME280;45330;51.634;5.562;2024-03-29T07:40:52;99158.41;;;7.64;100.00
59513;BME280;45330;51.634;5.562;2024-03-29T07:43:21;99154.09;;;7.63;100.00
59513;BME280;45330;51.634;5.562;2024-03-29T07:45:47;99137.19;;;7.48;100.00
59513;BME280;45330;51.634;5.562;2024-03-29T07:48:14;99161.03;;;7.63;100.00
59513;BME280;45330;51.634;5.562;2024-03-29T07:50:41;99165.38;;;7.61;100.00
59513;BME280;45330;51.634;5.562;2024-03-29T07:53:07;99171.38;;;7.63;100.00
59513;BME280;45330;51.634;5.562;2024-03-29T07:55:33;99167.91;;;7.64;100.00
59513;BME280;45330;51.634;5.562;2024-03-29T07:57:59;99173.75;;;7.73;100.00
59513;BME280;45330;51.634;5.562;2024-03-29T08:00:25;99132.50;;;7.64;100.00
59513;BME280;45330;51.634;5.562;2024-03-29T08:02:51;99129.22;;;7.56;100.00
59513;BME280;45330;51.634;5.562;2024-03-29T08:05:18;99167.47;;;7.84;100.00
59513;BME280;45330;51.634;5.562;2024-03-29T08:07:44;99168.16;;;7.92;100.00
59513;BME280;45330;51.634;5.562;2024-03-29T08:10:09;99159.19;;;8.07;100.00
59513;BME280;45330;51.634;5.562;2024-03-29T08:12:35;99153.75;;;8.18;100.00
59513;BME280;45330;51.634;5.562;2024-03-29T08:15:03;99154.44;;;8.26;100.00
59513;BME280;45330;51.634;5.562;2024-03-29T08:17:28;99143.09;;;8.30;100.00
59513;BME280;45330;51.634;5.562;2024-03-29T08:19:53;99168.22;;;8.64;100.00
59513;BME280;45330;51.634;5.562;2024-03-29T08:22:19;99165.97;;;8.85;100.00
59513;BME280;45330;51.634;5.562;2024-03-29T08:24:44;99150.88;;;8.99;100.00
59513;BME280;45330;51.634;5.562;2024-03-29T08:27:10;99152.94;;;9.19;100.00
59513;BME280;45330;51.634;5.562;2024-03-29T08:29:35;99165.91;;;9.19;100.00
59513;BME280;45330;51.634;5.562;2024-03-29T08:32:00;99153.06;;;9.15;100.00
59513;BME280;45330;51.634;5.562;2024-03-29T08:34:26;99178.59;;;9.30;100.00
59513;BME280;45330;51.634;5.562;2024-03-29T08:36:53;99183.50;;;9.39;100.00
59513;BME280;45330;51.634;5.562;2024-03-29T08:39:19;99177.28;;;9.47;100.00
59513;BME280;45330;51.634;5.562;2024-03-29T08:41:44;99145.66;;;9.32;100.00
59513;BME280;45330;51.634;5.562;2024-03-29T08:44:11;99161.16;;;9.35;100.00
59513;BME280;45330;51.634;5.562;2024-03-29T08:46:36;99141.97;;;9.39;100.00
59513;BME280;45330;51.634;5.562;2024-03-29T08:49:02;99175.19;;;9.59;100.00
59513;BME280;45330;51.634;5.562;2024-03-29T08:51:27;99184.44;;;9.68;100.00
59513;BME280;45330;51.634;5.562;2024-03-29T08:53:53;99181.00;;;9.68;100.00
59513;BME280;45330;51.634;5.562;2024-03-29T08:56:19;99196.75;;;9.61;100.00
59513;BME280;45330;51.634;5.562;2024-03-29T08:58:44;99200.22;;;9.60;100.00
59513;BME280;45330;51.634;5.562;2024-03-29T09:01:12;99184.69;;;9.59;100.00
59513;BME280;45330;51.634;5.562;2024-03-29T09:03:39;99175.91;;;9.63;100.00
59513;BME280;45330;51.634;5.562;2024-03-29T09:06:05;99196.84;;;9.88;100.00
59513;BME280;45330;51.634;5.562;2024-03-29T09:08:30;99189.66;;;9.96;100.00
59513;BME280;45330;51.634;5.562;2024-03-29T09:10:55;99175.84;;;9.96;100.00
59513;BME280;45330;51.634;5.562;2024-03-29T09:13:21;99194.75;;;10.28;100.00
59513;BME280;45330;51.634;5.562;2024-03-29T09:15:46;99196.56;;;10.54;100.00
59513;BME280;45330;51.634;5.562;2024-03-29T09:18:12;99172.44;;;10.51;100.00
59513;BME280;45330;51.634;5.562;2024-03-29T09:20:58;99186.38;;;10.75;100.00
59513;BME280;45330;51.634;5.562;2024-03-29T09:23:25;99188.41;;;10.65;100.00
59513;BME280;45330;51.634;5.562;2024-03-29T09:25:52;99177.28;;;10.33;100.00
59513;BME280;45330;51.634;5.562;2024-03-29T09:28:17;99205.00;;;10.34;100.00
59513;BME280;45330;51.634;5.562;2024-03-29T09:30:43;99177.34;;;10.03;100.00
59513;BME280;45330;51.634;5.562;2024-03-29T09:33:08;99206.44;;;10.15;100.00
59513;BME280;45330;51.634;5.562;2024-03-29T09:35:36;99177.59;;;10.22;100.00
59513;BME280;45330;51.634;5.562;2024-03-29T09:38:02;99191.56;;;10.48;100.00
59513;BME280;45330;51.634;5.562;2024-03-29T09:40:28;99193.41;;;10.71;100.00
59513;BME280;45330;51.634;5.562;2024-03-29T09:42:59;99224.13;;;11.12;100.00
59513;BME280;45330;51.634;5.562;2024-03-29T09:45:32;99219.22;;;11.29;100.00
59513;BME280;45330;51.634;5.562;2024-03-29T09:48:01;99219.75;;;11.38;100.00
59513;BME280;45330;51.634;5.562;2024-03-29T09:50:28;99227.31;;;11.45;100.00
59513;BME280;45330;51.634;5.562;2024-03-29T09:52:54;99222.09;;;11.45;100.00
59513;BME280;45330;51.634;5.562;2024-03-29T09:55:20;99235.22;;;11.67;100.00
59513;BME280;45330;51.634;5.562;2024-03-29T09:57:46;99219.16;;;11.78;100.00
59513;BME280;45330;51.634;5.562;2024-03-29T10:00:12;99240.84;;;12.04;100.00
59513;BME280;45330;51.634;5.562;2024-03-29T10:02:38;99227.69;;;12.07;100.00
59513;BME280;45330;51.634;5.562;2024-03-29T10:05:06;99245.84;;;12.32;100.00
59513;BME280;45330;51.634;5.562;2024-03-29T10:07:33;99238.19;;;12.50;100.00
59513;BME280;45330;51.634;5.562;2024-03-29T10:10:01;99238.31;;;12.69;100.00
59513;BME280;45330;51.634;5.562;2024-03-29T10:12:28;99232.06;;;12.73;100.00
59513;BME280;45330;51.634;5.562;2024-03-29T10:14:53;99217.66;;;12.63;100.00
59513;BME280;45330;51.634;5.562;2024-03-29T10:17:23;99215.44;;;12.76;100.00
59513;BME280;45330;51.634;5.562;2024-03-29T10:19:49;99214.97;;;12.86;100.00
59513;BME280;45330;51.634;5.562;2024-03-29T10:22:15;99231.09;;;12.96;100.00
59513;BME280;45330;51.634;5.562;2024-03-29T10:24:40;99230.50;;;12.90;100.00
59513;BME280;45330;51.634;5.562;2024-03-29T10:27:06;99239.50;;;12.82;100.00
59513;BME280;45330;51.634;5.562;2024-03-29T10:29:31;99211.81;;;12.58;100.00
59513;BME280;45330;51.634;5.562;2024-03-29T10:31:56;99216.34;;;12.52;100.00
59513;BME280;45330;51.634;5.562;2024-03-29T10:34:22;99212.66;;;12.58;100.00
59513;BME280;45330;51.634;5.562;2024-03-29T10:36:48;99212.09;;;12.50;100.00
59513;BME280;45330;51.634;5.562;2024-03-29T10:39:16;99244.97;;;12.54;100.00
59513;BME280;45330;51.634;5.562;2024-03-29T10:41:43;99202.47;;;12.30;100.00
59513;BME280;45330;51.634;5.562;2024-03-29T10:44:10;99235.72;;;12.47;100.00
59513;BME280;45330;51.634;5.562;2024-03-29T10:46:37;99229.47;;;12.51;100.00
59513;BME280;45330;51.634;5.562;2024-03-29T10:49:06;99211.81;;;12.58;100.00
59513;BME280;45330;51.634;5.562;2024-03-29T10:51:33;99226.28;;;12.87;100.00
59513;BME280;45330;51.634;5.562;2024-03-29T10:53:59;99236.41;;;13.15;100.00
59513;BME280;45330;51.634;5.562;2024-03-29T10:56:26;99227.13;;;13.08;100.00
59513;BME280;45330;51.634;5.562;2024-03-29T10:58:55;99238.72;;;13.21;100.00
59513;BME280;45330;51.634;5.562;2024-03-29T11:01:22;99261.22;;;13.46;100.00
59513;BME280;45330;51.634;5.562;2024-03-29T11:03:54;99265.66;;;13.24;100.00
59513;BME280;45330;51.634;5.562;2024-03-29T11:06:24;99268.91;;;13.08;100.00
59513;BME280;45330;51.634;5.562;2024-03-29T11:08:52;99276.47;;;13.14;100.00
59513;BME280;45330;51.634;5.562;2024-03-29T11:11:20;99249.13;;;13.23;100.00
59513;BME280;45330;51.634;5.562;2024-03-29T11:13:58;99252.31;;;13.30;100.00
59513;BME280;45330;51.634;5.562;2024-03-29T11:16:27;99245.00;;;13.17;100.00
59513;BME280;45330;51.634;5.562;2024-03-29T11:18:53;99253.00;;;13.35;100.00
59513;BME280;45330;51.634;5.562;2024-03-29T11:21:19;99227.66;;;13.37;100.00
59513;BME280;45330;51.634;5.562;2024-03-29T11:23:49;99215.69;;;13.31;100.00
59513;BME280;45330;51.634;5.562;2024-03-29T11:26:15;99224.19;;;13.16;100.00
59513;BME280;45330;51.634;5.562;2024-03-29T11:28:48;99205.63;;;12.81;100.00
59513;BME280;45330;51.634;5.562;2024-03-29T11:31:14;99234.50;;;12.98;100.00
59513;BME280;45330;51.634;5.562;2024-03-29T11:36:28;99254.81;;;13.12;100.00
59513;BME280;45330;51.634;5.562;2024-03-29T11:38:56;99246.44;;;13.25;100.00
59513;BME280;45330;51.634;5.562;2024-03-29T11:41:26;99259.06;;;13.35;100.00
59513;BME280;45330;51.634;5.562;2024-03-29T11:43:56;99278.59;;;13.27;100.00
59513;BME280;45330;51.634;5.562;2024-03-29T11:46:23;99258.53;;;13.07;100.00
59513;BME280;45330;51.634;5.562;2024-03-29T11:48:49;99263.50;;;13.13;100.00
59513;BME280;45330;51.634;5.562;2024-03-29T11:51:18;99258.97;;;12.96;100.00
59513;BME280;45330;51.634;5.562;2024-03-29T11:53:46;99269.47;;;12.94;100.00
59513;BME280;45330;51.634;5.562;2024-03-29T11:56:12;99266.53;;;13.02;100.00
59513;BME280;45330;51.634;5.562;2024-03-29T11:58:38;99252.72;;;13.00;100.00
59513;BME280;45330;51.634;5.562;2024-03-29T12:01:07;99268.34;;;13.22;100.00
59513;BME280;45330;51.634;5.562;2024-03-29T12:03:39;99263.28;;;13.17;100.00
59513;BME280;45330;51.634;5.562;2024-03-29T12:06:08;99284.22;;;13.59;100.00
59513;BME280;45330;51.634;5.562;2024-03-29T12:08:36;99264.09;;;13.61;100.00
59513;BME280;45330;51.634;5.562;2024-03-29T12:11:03;99284.78;;;14.05;100.00
59513;BME280;45330;51.634;5.562;2024-03-29T12:13:29;99265.78;;;14.20;100.00
59513;BME280;45330;51.634;5.562;2024-03-29T12:15:55;99288.81;;;14.31;99.76
59513;BME280;45330;51.634;5.562;2024-03-29T12:18:22;99270.84;;;14.23;100.00
59513;BME280;45330;51.634;5.562;2024-03-29T12:20:49;99263.28;;;14.17;98.59
59513;BME280;45330;51.634;5.562;2024-03-29T12:23:16;99258.28;;;14.13;97.33
59513;BME280;45330;51.634;5.562;2024-03-29T12:25:42;99260.16;;;14.09;99.39
59513;BME280;45330;51.634;5.562;2024-03-29T12:28:09;99293.13;;;14.32;100.00
59513;BME280;45330;51.634;5.562;2024-03-29T12:30:34;99300.09;;;14.51;98.94
59513;BME280;45330;51.634;5.562;2024-03-29T12:33:05;99293.25;;;14.48;94.32
59513;BME280;45330;51.634;5.562;2024-03-29T12:35:34;99295.25;;;14.43;94.09
59513;BME280;45330;51.634;5.562;2024-03-29T12:38:01;99275.66;;;14.33;93.00
59513;BME280;45330;51.634;5.562;2024-03-29T12:40:28;99272.38;;;14.47;92.40
59513;BME280;45330;51.634;5.562;2024-03-29T12:42:57;99282.78;;;14.67;91.88
59513;BME280;45330;51.634;5.562;2024-03-29T12:45:24;99284.19;;;14.74;87.98
59513;BME280;45330;51.634;5.562;2024-03-29T12:47:49;99275.94;;;14.65;87.89
59513;BME280;45330;51.634;5.562;2024-03-29T12:50:26;99271.53;;;14.65;87.55
59513;BME280;45330;51.634;5.562;2024-03-29T12:53:00;99285.91;;;14.93;86.84
59513;BME280;45330;51.634;5.562;2024-03-29T12:55:27;99297.59;;;15.03;84.15
59513;BME280;45330;51.634;5.562;2024-03-29T12:57:57;99274.13;;;15.02;82.29